createdAt,value
2022-10-30T00:01:39.694Z,19.13
2022-10-30T00:04:06.416Z,18.15
2022-10-30T00:06:33.031Z,17.38
2022-10-30T00:08:59.707Z,17.63
2022-10-30T00:11:26.360Z,23.33
2022-10-30T00:13:53.083Z,22.08
2022-10-30T00:16:19.744Z,17.27
2022-10-30T00:18:46.395Z,17.40
2022-10-30T00:21:15.426Z,19.55
2022-10-30T00:23:47.563Z,24.38
2022-10-30T00:26:15.090Z,20.02
2022-10-30T00:28:41.739Z,15.52
2022-10-30T00:31:09.157Z,15.48
2022-10-30T00:33:35.877Z,20.35
2022-10-30T00:36:02.750Z,15.45
2022-10-30T00:38:29.455Z,19.77
2022-10-30T00:40:56.136Z,14.70
2022-10-30T00:43:33.718Z,12.90
2022-10-30T00:46:14.202Z,18.38
2022-10-30T00:48:42.559Z,15.32
2022-10-30T00:51:11.503Z,14.73
2022-10-30T00:53:38.816Z,14.40
2022-10-30T00:56:08.569Z,13.07
2022-10-30T00:59:00.485Z,18.63
2022-10-30T01:01:36.171Z,20.40
2022-10-30T01:04:05.802Z,17.48
2022-10-30T01:06:35.865Z,16.63
2022-10-30T01:09:03.903Z,20.50
2022-10-30T01:11:31.153Z,16.70
2022-10-30T01:14:03.050Z,14.88
2022-10-30T01:16:51.508Z,13.55
2022-10-30T01:19:33.489Z,12.32
2022-10-30T01:22:07.068Z,19.00
2022-10-30T01:25:11.590Z,12.38
2022-10-30T01:27:53.666Z,15.15
2022-10-30T01:30:29.618Z,17.95
2022-10-30T01:33:11.598Z,14.88
2022-10-30T01:35:47.712Z,18.60
2022-10-30T01:38:23.975Z,10.93
2022-10-30T01:40:50.883Z,13.77
2022-10-30T01:43:17.573Z,13.10
2022-10-30T01:45:44.217Z,16.25
2022-10-30T01:48:22.953Z,12.15
2022-10-30T01:51:08.293Z,15.10
2022-10-30T01:54:16.819Z,16.90
2022-10-30T01:57:01.872Z,12.00
2022-10-30T01:59:43.468Z,12.85
2022-10-30T02:02:10.822Z,24.77
2022-10-30T02:04:38.734Z,13.63
2022-10-30T02:07:05.738Z,12.13
2022-10-30T02:09:32.455Z,15.85
2022-10-30T02:12:00.717Z,12.73
2022-10-30T02:14:42.639Z,13.25
2022-10-30T02:17:11.677Z,22.45
2022-10-30T02:19:38.661Z,16.27
2022-10-30T02:22:05.741Z,15.95
2022-10-30T02:24:32.731Z,20.35
2022-10-30T02:26:59.462Z,16.60
2022-10-30T02:29:26.475Z,20.40
2022-10-30T02:31:53.193Z,21.40
2022-10-30T02:34:20.571Z,18.35
2022-10-30T02:36:47.245Z,19.10
2022-10-30T02:39:13.951Z,13.48
2022-10-30T02:41:40.592Z,15.20
2022-10-30T02:44:07.481Z,11.48
2022-10-30T02:46:34.933Z,13.60
2022-10-30T02:49:01.678Z,11.40
2022-10-30T02:51:28.634Z,13.20
2022-10-30T02:53:55.301Z,14.50
2022-10-30T02:56:21.971Z,12.82
2022-10-30T02:58:48.758Z,17.27
2022-10-30T03:01:18.510Z,11.32
2022-10-30T03:03:46.562Z,13.27
2022-10-30T03:06:15.706Z,10.68
2022-10-30T03:08:43.858Z,13.90
2022-10-30T03:11:13.469Z,14.00
2022-10-30T03:13:41.049Z,10.50
2022-10-30T03:16:12.941Z,9.00
2022-10-30T03:18:40.588Z,10.85
2022-10-30T03:21:09.424Z,10.93
2022-10-30T03:23:36.092Z,9.60
2022-10-30T03:26:03.391Z,12.98
2022-10-30T03:28:32.123Z,13.40
2022-10-30T03:31:11.328Z,14.88
2022-10-30T03:33:38.566Z,15.32
2022-10-30T03:36:07.061Z,16.60
2022-10-30T03:38:34.169Z,12.55
2022-10-30T03:41:01.009Z,16.33
2022-10-30T03:43:27.933Z,8.00
2022-10-30T03:45:55.933Z,8.50
2022-10-30T03:48:25.092Z,10.15
2022-10-30T03:50:56.634Z,10.73
2022-10-30T03:53:26.284Z,11.10
2022-10-30T03:55:57.515Z,10.30
2022-10-30T03:58:24.215Z,13.55
2022-10-30T04:00:50.877Z,14.43
2022-10-30T04:03:17.584Z,16.58
2022-10-30T04:05:44.276Z,17.42
2022-10-30T04:08:14.861Z,10.82
2022-10-30T04:10:46.086Z,13.70
2022-10-30T04:13:15.171Z,15.35
2022-10-30T04:15:41.956Z,11.85
2022-10-30T04:18:11.432Z,14.80
2022-10-30T04:20:38.400Z,13.50
2022-10-30T04:23:07.738Z,11.15
2022-10-30T04:25:35.590Z,22.42
2022-10-30T04:28:03.095Z,15.02
2022-10-30T04:30:34.185Z,17.63
2022-10-30T04:33:02.496Z,13.57
2022-10-30T04:35:31.770Z,17.70
2022-10-30T04:38:03.691Z,17.10
2022-10-30T04:40:33.881Z,19.25
2022-10-30T04:43:01.344Z,14.40
2022-10-30T04:45:28.160Z,18.75
2022-10-30T04:48:05.838Z,12.57
2022-10-30T04:50:33.657Z,17.63
2022-10-30T04:53:02.067Z,12.65
2022-10-30T04:55:29.811Z,19.00
2022-10-30T04:57:58.953Z,17.15
2022-10-30T05:00:27.432Z,29.85
2022-10-30T05:02:54.379Z,14.98
2022-10-30T05:05:21.342Z,20.10
2022-10-30T05:07:47.960Z,15.65
2022-10-30T05:10:15.349Z,15.93
2022-10-30T05:12:43.470Z,9.40
2022-10-30T05:15:11.248Z,16.80
2022-10-30T05:17:38.182Z,17.20
2022-10-30T05:20:06.178Z,9.43
2022-10-30T05:22:33.303Z,14.13
2022-10-30T05:24:59.965Z,11.43
2022-10-30T05:27:26.690Z,15.65
2022-10-30T05:29:53.350Z,13.25
2022-10-30T05:32:20.054Z,16.40
2022-10-30T05:34:46.665Z,14.02
2022-10-30T05:37:13.291Z,15.75
2022-10-30T05:39:39.982Z,21.42
2022-10-30T05:42:09.798Z,21.10
2022-10-30T05:44:59.977Z,13.13
2022-10-30T05:47:26.006Z,14.85
2022-10-30T05:49:52.699Z,14.60
2022-10-30T05:52:19.373Z,27.85
2022-10-30T05:54:46.047Z,13.52
2022-10-30T05:57:12.752Z,9.55
2022-10-30T05:59:39.378Z,11.70
2022-10-30T06:02:06.067Z,12.15
2022-10-30T06:04:33.032Z,17.27
2022-10-30T06:06:59.699Z,15.13
2022-10-30T06:09:26.347Z,9.73
2022-10-30T06:11:54.147Z,13.32
2022-10-30T06:14:20.844Z,14.40
2022-10-30T06:16:48.618Z,14.65
2022-10-30T06:19:18.422Z,19.95
2022-10-30T06:21:46.069Z,13.55
2022-10-30T06:24:12.865Z,18.58
2022-10-30T06:26:39.957Z,15.50
2022-10-30T06:29:06.786Z,17.98
2022-10-30T06:31:33.470Z,18.83
2022-10-30T06:34:00.184Z,21.40
2022-10-30T06:36:26.932Z,15.52
2022-10-30T06:38:53.549Z,17.20
2022-10-30T06:41:21.076Z,25.52
2022-10-30T06:43:49.092Z,18.02
2022-10-30T06:46:15.736Z,16.67
2022-10-30T06:48:42.483Z,16.27
2022-10-30T06:51:09.164Z,16.55
2022-10-30T06:53:35.982Z,13.98
2022-10-30T06:56:03.840Z,18.73
2022-10-30T06:58:31.125Z,21.38
2022-10-30T07:01:01.298Z,14.85
2022-10-30T07:03:28.198Z,15.15
2022-10-30T07:05:54.919Z,24.85
2022-10-30T07:08:21.576Z,18.50
2022-10-30T07:10:48.372Z,21.60
2022-10-30T07:13:15.014Z,20.92
2022-10-30T07:18:11.412Z,18.80
2022-10-30T07:20:43.537Z,10.93
2022-10-30T07:23:16.569Z,21.23
2022-10-30T07:25:43.839Z,11.95
2022-10-30T07:28:11.746Z,19.63
2022-10-30T07:30:39.187Z,17.75
2022-10-30T07:33:08.044Z,18.23
2022-10-30T07:38:19.480Z,14.88
2022-10-30T07:46:15.191Z,16.02
2022-10-30T07:51:22.813Z,15.10
2022-10-30T07:53:49.497Z,14.38
2022-10-30T07:56:16.174Z,15.00
2022-10-30T07:58:45.717Z,16.52
2022-10-30T08:01:12.742Z,15.00
2022-10-30T08:03:39.415Z,16.25
2022-10-30T08:06:06.430Z,14.38
2022-10-30T08:08:33.144Z,8.93
2022-10-30T08:10:59.832Z,25.40
2022-10-30T08:13:26.613Z,13.95
2022-10-30T08:15:53.324Z,10.82
2022-10-30T08:18:20.034Z,14.23
2022-10-30T08:20:50.649Z,11.98
2022-10-30T08:23:19.832Z,13.70
2022-10-30T08:25:47.258Z,13.70
2022-10-30T08:28:14.623Z,21.17
2022-10-30T08:30:41.543Z,12.82
2022-10-30T08:33:13.675Z,15.90
2022-10-30T08:35:48.048Z,13.15
2022-10-30T08:38:14.787Z,13.63
2022-10-30T08:40:41.534Z,13.73
2022-10-30T08:43:08.837Z,21.10
2022-10-30T08:45:36.071Z,12.98
2022-10-30T08:48:04.767Z,12.52
2022-10-30T08:50:32.754Z,17.10
2022-10-30T08:53:07.513Z,16.75
2022-10-30T08:55:35.545Z,13.13
2022-10-30T08:58:02.299Z,18.98
2022-10-30T09:00:29.680Z,17.55
2022-10-30T09:02:56.838Z,15.18
2022-10-30T09:05:23.850Z,21.33
2022-10-30T09:07:56.662Z,13.30
2022-10-30T09:10:23.938Z,17.30
2022-10-30T09:12:58.571Z,26.02
2022-10-30T09:15:26.661Z,19.75
2022-10-30T09:17:58.349Z,18.60
2022-10-30T09:20:25.777Z,21.63
2022-10-30T09:22:52.675Z,16.70
2022-10-30T09:25:19.709Z,18.83
2022-10-30T09:27:46.874Z,21.40
2022-10-30T09:30:14.595Z,30.48
2022-10-30T09:32:41.492Z,20.98
2022-10-30T09:35:09.123Z,19.67
2022-10-30T09:37:37.053Z,20.45
2022-10-30T09:40:05.887Z,24.38
2022-10-30T09:42:50.042Z,21.27
2022-10-30T09:45:38.054Z,18.85
2022-10-30T09:48:11.425Z,24.83
2022-10-30T09:50:46.974Z,17.55
2022-10-30T09:53:39.324Z,19.63
2022-10-30T09:56:19.440Z,18.17
2022-10-30T09:59:05.680Z,20.85
2022-10-30T10:01:48.058Z,17.80
2022-10-30T10:04:38.353Z,20.83
2022-10-30T10:07:16.630Z,25.35
2022-10-30T10:09:44.977Z,17.75
2022-10-30T10:12:22.424Z,20.42
2022-10-30T10:14:49.666Z,22.00
2022-10-30T10:17:39.328Z,21.63
2022-10-30T10:20:16.487Z,20.00
2022-10-30T10:22:50.794Z,25.50
2022-10-30T10:25:20.478Z,29.92
2022-10-30T10:27:47.078Z,14.80
2022-10-30T10:30:20.942Z,20.10
2022-10-30T10:33:06.496Z,18.98
2022-10-30T10:35:43.990Z,15.60
2022-10-30T10:38:32.554Z,16.23
2022-10-30T10:41:27.245Z,22.30
2022-10-30T10:44:06.126Z,23.85
2022-10-30T10:46:47.879Z,15.43
2022-10-30T10:49:45.407Z,14.32
2022-10-30T10:52:21.806Z,18.70
2022-10-30T10:54:51.473Z,27.95
2022-10-30T10:57:28.977Z,14.60
2022-10-30T11:00:06.876Z,16.02
2022-10-30T11:02:48.781Z,15.35
2022-10-30T11:05:28.755Z,22.45
2022-10-30T11:08:01.688Z,21.48
2022-10-30T11:10:28.539Z,24.52
2022-10-30T11:12:55.251Z,16.77
2022-10-30T11:15:29.531Z,26.23
2022-10-30T11:18:03.065Z,25.73
2022-10-30T11:20:51.496Z,14.18
2022-10-30T11:23:38.800Z,22.77
2022-10-30T11:26:24.234Z,20.25
2022-10-30T11:29:14.705Z,22.17
2022-10-30T11:31:43.837Z,22.25
2022-10-30T11:34:19.675Z,19.38
2022-10-30T11:36:50.593Z,22.98
2022-10-30T11:39:21.537Z,22.88
2022-10-30T11:42:07.041Z,26.10
2022-10-30T11:44:38.430Z,23.30
2022-10-30T11:47:07.164Z,20.85
2022-10-30T11:49:40.720Z,17.55
2022-10-30T11:52:08.572Z,22.77
2022-10-30T11:54:41.879Z,21.15
2022-10-30T11:57:27.360Z,25.65
2022-10-30T11:59:59.312Z,18.77
2022-10-30T12:02:30.381Z,24.98
2022-10-30T12:05:02.154Z,19.90
2022-10-30T12:07:33.819Z,24.02
2022-10-30T12:10:01.898Z,23.02
2022-10-30T12:12:34.458Z,25.60
2022-10-30T12:15:20.137Z,20.17
2022-10-30T12:18:02.804Z,27.85
2022-10-30T12:20:30.004Z,20.90
2022-10-30T12:22:58.086Z,23.00
2022-10-30T12:25:32.414Z,20.08
2022-10-30T12:28:12.755Z,15.30
2022-10-30T12:30:56.643Z,28.35
2022-10-30T12:33:38.874Z,21.02
2022-10-30T12:36:15.924Z,18.45
2022-10-30T12:38:45.663Z,25.23
2022-10-30T12:41:30.201Z,20.52
2022-10-30T12:44:04.782Z,14.23
2022-10-30T12:46:34.552Z,22.10
2022-10-30T12:49:19.810Z,25.17
2022-10-30T12:52:14.917Z,18.55
2022-10-30T12:54:56.863Z,18.10
2022-10-30T12:57:37.752Z,26.98
2022-10-30T13:00:13.758Z,17.85
2022-10-30T13:02:51.634Z,15.20
2022-10-30T13:05:24.496Z,29.85
2022-10-30T13:08:00.913Z,21.58
2022-10-30T13:10:41.607Z,22.90
2022-10-30T13:13:16.528Z,18.83
2022-10-30T13:15:56.018Z,21.08
2022-10-30T13:18:24.868Z,21.58
2022-10-30T13:21:12.965Z,21.08
2022-10-30T13:23:55.210Z,29.23
2022-10-30T13:26:25.059Z,23.92
2022-10-30T13:29:13.933Z,22.50
2022-10-30T13:31:56.237Z,25.92
2022-10-30T13:34:31.972Z,22.85
2022-10-30T13:37:13.536Z,28.95
2022-10-30T13:40:03.229Z,22.75
2022-10-30T13:42:38.975Z,27.55
2022-10-30T13:45:50.583Z,24.63
2022-10-30T13:48:48.116Z,20.35
2022-10-30T13:51:41.286Z,21.92
2022-10-30T13:54:15.670Z,23.65
2022-10-30T13:56:44.131Z,21.70
2022-10-30T13:59:30.971Z,28.15
2022-10-30T14:02:07.084Z,20.17
2022-10-30T14:05:10.662Z,22.00
2022-10-30T14:07:41.614Z,29.05
2022-10-30T14:10:20.822Z,32.25
2022-10-30T14:12:51.355Z,29.55
2022-10-30T14:15:32.021Z,30.42
2022-10-30T14:18:14.031Z,27.30
2022-10-30T14:20:49.144Z,19.42
2022-10-30T14:23:20.241Z,24.75
2022-10-30T14:26:02.260Z,23.08
2022-10-30T14:28:34.398Z,23.58
2022-10-30T14:31:08.057Z,36.65
2022-10-30T14:33:42.107Z,23.05
2022-10-30T14:36:19.693Z,27.25
2022-10-30T14:38:54.943Z,18.35
2022-10-30T14:41:32.272Z,39.45
2022-10-30T14:44:37.492Z,24.27
2022-10-30T14:47:27.120Z,27.70
2022-10-30T14:50:00.960Z,26.33
2022-10-30T14:52:49.310Z,21.00
2022-10-30T14:55:26.616Z,23.55
2022-10-30T14:58:15.569Z,19.05
2022-10-30T15:00:43.262Z,22.70
2022-10-30T15:03:15.765Z,27.17
2022-10-30T15:05:54.414Z,20.05
2022-10-30T15:08:52.215Z,28.05
2022-10-30T15:11:57.069Z,24.30
2022-10-30T15:17:27.851Z,22.73
2022-10-30T15:22:23.752Z,19.40
2022-10-30T15:24:54.812Z,30.15
2022-10-30T15:27:24.108Z,33.25
2022-10-30T15:30:01.342Z,20.88
2022-10-30T15:32:28.368Z,17.80
2022-10-30T15:35:03.133Z,30.77
2022-10-30T15:37:30.906Z,23.63
2022-10-30T15:40:20.727Z,27.85
2022-10-30T15:43:00.692Z,28.05
2022-10-30T15:45:40.562Z,15.90
2022-10-30T15:48:31.973Z,19.25
2022-10-30T15:50:58.681Z,27.40
2022-10-30T15:53:34.986Z,19.27
2022-10-30T15:56:02.727Z,23.90
2022-10-30T15:58:37.464Z,27.98
2022-10-30T16:01:04.451Z,24.10
2022-10-30T16:03:31.271Z,32.03
2022-10-30T16:06:06.086Z,23.00
2022-10-30T16:08:44.068Z,23.63
2022-10-30T16:11:10.841Z,19.23
2022-10-30T16:13:37.578Z,26.23
2022-10-30T16:16:05.057Z,22.90
2022-10-30T16:18:36.035Z,28.30
2022-10-30T16:21:06.570Z,33.00
2022-10-30T16:23:42.654Z,27.08
2022-10-30T16:26:34.552Z,22.50
2022-10-30T16:29:13.126Z,25.65
2022-10-30T16:31:43.417Z,23.67
2022-10-30T16:34:32.139Z,23.85
2022-10-30T16:37:00.126Z,25.15
2022-10-30T16:39:28.148Z,28.25
2022-10-30T16:41:58.910Z,29.15
2022-10-30T16:44:31.363Z,21.33
2022-10-30T16:47:00.005Z,25.35
2022-10-30T16:49:30.560Z,22.25
2022-10-30T16:52:00.582Z,18.35
2022-10-30T16:54:31.239Z,20.50
2022-10-30T16:57:00.276Z,28.27
2022-10-30T16:59:35.393Z,34.10
2022-10-30T17:02:06.753Z,28.35
2022-10-30T17:04:35.041Z,20.90
2022-10-30T17:07:08.081Z,29.40
2022-10-30T17:09:37.577Z,17.83
2022-10-30T17:12:14.279Z,19.58
2022-10-30T17:14:46.985Z,30.25
2022-10-30T17:17:25.756Z,26.75
2022-10-30T17:19:57.807Z,20.98
2022-10-30T17:22:30.828Z,27.65
2022-10-30T17:27:46.840Z,27.23
2022-10-30T17:30:35.587Z,30.83
2022-10-30T17:33:21.861Z,27.23
2022-10-30T17:35:50.759Z,27.27
2022-10-30T17:38:18.623Z,20.40
2022-10-30T17:40:51.158Z,20.55
2022-10-30T17:43:18.918Z,19.23
2022-10-30T17:45:46.752Z,27.33
2022-10-30T17:48:18.627Z,15.27
2022-10-30T17:50:46.582Z,26.30
2022-10-30T17:53:22.141Z,20.35
2022-10-30T17:59:58.701Z,16.98
2022-10-30T18:02:26.149Z,19.27
2022-10-30T18:04:58.234Z,10.82
2022-10-30T18:07:25.665Z,19.65
2022-10-30T18:09:54.323Z,15.82
2022-10-30T18:12:21.188Z,12.75
2022-10-30T18:14:47.904Z,22.45
2022-10-30T18:17:14.680Z,15.82
2022-10-30T18:19:41.451Z,24.30
2022-10-30T18:22:10.319Z,12.63
2022-10-30T18:24:37.046Z,9.27
2022-10-30T18:27:03.854Z,11.52
2022-10-30T18:29:30.562Z,16.27
2022-10-30T18:31:57.202Z,17.70
2022-10-30T18:34:23.902Z,14.85
2022-10-30T18:36:50.620Z,21.73
2022-10-30T18:39:17.314Z,12.90
2022-10-30T18:41:46.217Z,16.33
2022-10-30T18:44:17.912Z,18.55
2022-10-30T18:46:45.359Z,14.23
2022-10-30T18:49:12.587Z,14.90
2022-10-30T18:51:39.506Z,20.60
2022-10-30T18:54:15.903Z,19.88
2022-10-30T18:56:43.446Z,11.88
2022-10-30T18:59:10.516Z,9.77
2022-10-30T19:01:37.654Z,16.60
2022-10-30T19:04:09.226Z,12.13
2022-10-30T19:06:38.574Z,17.05
2022-10-30T19:09:05.361Z,17.23
2022-10-30T19:11:34.202Z,15.25
2022-10-30T19:14:00.848Z,11.30
2022-10-30T19:16:28.047Z,15.52
2022-10-30T19:18:54.855Z,16.77
2022-10-30T19:21:25.790Z,12.80
2022-10-30T19:23:53.104Z,15.75
2022-10-30T19:26:19.858Z,12.82
2022-10-30T19:28:46.556Z,13.55
2022-10-30T19:31:17.818Z,13.60
2022-10-30T19:33:51.510Z,9.98
2022-10-30T19:36:27.751Z,11.00
2022-10-30T19:38:54.773Z,12.80
2022-10-30T19:41:21.579Z,12.10
2022-10-30T19:43:48.754Z,13.05
2022-10-30T19:46:15.468Z,11.65
2022-10-30T19:48:59.243Z,9.02
2022-10-30T19:51:27.975Z,12.30
2022-10-30T19:53:57.722Z,8.27
2022-10-30T19:56:24.406Z,11.45
2022-10-30T19:58:51.584Z,6.90
2022-10-30T20:01:19.226Z,11.65
2022-10-30T20:03:50.516Z,9.48
2022-10-30T20:06:19.538Z,13.23
2022-10-30T20:08:46.288Z,7.03
2022-10-30T20:11:13.350Z,13.70
2022-10-30T20:13:39.996Z,8.52
2022-10-30T20:16:07.711Z,9.50
2022-10-30T20:18:36.734Z,10.15
2022-10-30T20:21:14.966Z,10.38
2022-10-30T20:23:42.960Z,7.40
2022-10-30T20:26:40.367Z,11.38
2022-10-30T20:29:13.798Z,9.35
2022-10-30T20:31:45.755Z,8.23
2022-10-30T20:34:16.690Z,13.38
2022-10-30T20:36:44.074Z,11.90
2022-10-30T20:39:18.543Z,11.05
2022-10-30T20:41:50.409Z,10.18
2022-10-30T20:44:18.189Z,17.17
2022-10-30T20:46:46.841Z,9.85
2022-10-30T20:49:17.666Z,13.20
2022-10-30T20:51:45.335Z,12.52
2022-10-30T20:54:13.327Z,7.28
2022-10-30T20:56:40.241Z,9.80
2022-10-30T20:59:06.926Z,10.50
2022-10-30T21:01:35.134Z,8.00
2022-10-30T21:04:04.137Z,8.38
2022-10-30T21:06:30.777Z,9.98
2022-10-30T21:08:59.503Z,13.73
2022-10-30T21:11:26.417Z,11.40
2022-10-30T21:13:56.835Z,12.80
2022-10-30T21:16:23.762Z,10.90
2022-10-30T21:18:54.846Z,13.63
2022-10-30T21:21:25.542Z,11.43
2022-10-30T21:23:56.459Z,6.90
2022-10-30T21:26:24.703Z,13.23
2022-10-30T21:28:51.528Z,13.88
2022-10-30T21:31:18.436Z,12.35
2022-10-30T21:33:45.312Z,8.40
2022-10-30T21:36:15.258Z,14.13
2022-10-30T21:38:44.999Z,13.80
2022-10-30T21:41:17.254Z,12.30
2022-10-30T21:43:48.915Z,10.00
2022-10-30T21:46:15.621Z,7.75
2022-10-30T21:48:42.314Z,10.77
2022-10-30T21:51:17.531Z,11.95
2022-10-30T21:53:45.884Z,9.40
2022-10-30T21:56:21.738Z,13.95
2022-10-30T21:58:49.208Z,14.80
2022-10-30T22:01:16.988Z,9.75
2022-10-30T22:03:44.231Z,14.65
2022-10-30T22:06:13.250Z,8.63
2022-10-30T22:08:40.612Z,7.60
2022-10-30T22:11:10.608Z,12.43
2022-10-30T22:13:37.756Z,12.57
2022-10-30T22:16:06.877Z,15.93
2022-10-30T22:18:33.887Z,13.90
2022-10-30T22:21:06.675Z,17.95
2022-10-30T22:23:34.192Z,19.50
2022-10-30T22:26:03.327Z,19.38
2022-10-30T22:28:32.534Z,13.82
2022-10-30T22:31:07.536Z,11.35
2022-10-30T22:33:34.682Z,10.07
2022-10-30T22:36:23.405Z,12.00
2022-10-30T22:38:56.440Z,13.07
2022-10-30T22:41:28.677Z,10.30
2022-10-30T22:43:59.359Z,8.07
2022-10-30T22:46:30.641Z,9.52
2022-10-30T22:48:58.153Z,14.23
2022-10-30T22:51:25.582Z,9.63
2022-10-30T22:53:58.968Z,11.70
2022-10-30T22:56:28.521Z,11.95
2022-10-30T22:58:56.162Z,9.90
2022-10-30T23:01:29.016Z,7.45
2022-10-30T23:03:57.356Z,9.75
2022-10-30T23:06:25.102Z,8.25
2022-10-30T23:08:53.182Z,9.05
2022-10-30T23:11:20.421Z,9.32
2022-10-30T23:13:47.738Z,8.60
2022-10-30T23:16:17.586Z,8.27
2022-10-30T23:18:44.734Z,9.00
2022-10-30T23:21:19.557Z,10.48
2022-10-30T23:23:46.584Z,7.60
2022-10-30T23:26:25.600Z,8.13
2022-10-30T23:28:54.078Z,6.55
2022-10-30T23:31:27.926Z,10.70
2022-10-30T23:33:57.294Z,9.07
2022-10-30T23:36:24.886Z,8.88
2022-10-30T23:38:56.339Z,10.60
2022-10-30T23:41:25.233Z,5.22
2022-10-30T23:43:56.481Z,5.25
2022-10-30T23:46:23.648Z,6.72
2022-10-30T23:48:50.527Z,8.90
2022-10-30T23:51:17.921Z,10.10
2022-10-30T23:53:44.593Z,7.97
2022-10-30T23:56:11.606Z,7.28
2022-10-30T23:58:38.474Z,4.78
